Time;durP1;ratioP1;P1;durP2;ratioP2;P2;SDS_P1;SDS_P2;PMS_P1;PMS_P2;Temp;Humidity;BMP_temperature;BMP_pressure;BME280_temperature;BME280_humidity;BME280_pressure;Samples;Min_cycle;Max_cycle;Signal;HPM_P1;HPM_P2
2022/04/25 00:01:26;;;;;;;50.97;17.02;;;11.60;99.90;;;;;;6220922;28;20189;-78
2022/04/25 00:04:28;;;;;;;54.75;18.25;;;11.80;99.90;;;;;;6220231;28;20046;-78
2022/04/25 00:07:30;;;;;;;61.45;19.20;;;11.80;99.90;;;;;;6211470;28;20050;-78
2022/04/25 00:10:33;;;;;;;63.70;19.70;;;11.90;99.90;;;;;;6217865;28;20043;-81
2022/04/25 00:13:35;;;;;;;72.90;23.38;;;11.90;99.90;;;;;;6214166;28;20060;-79
2022/04/25 00:16:37;;;;;;;70.88;22.65;;;12.00;99.90;;;;;;6219803;28;20132;-82
2022/04/25 00:19:39;;;;;;;64.57;21.58;;;11.90;99.90;;;;;;6207437;28;20054;-80
2022/04/25 00:22:41;;;;;;;72.57;22.15;;;11.90;99.90;;;;;;6201603;28;20050;-79
2022/04/25 00:25:46;;;;;;;78.60;20.00;;;11.90;99.90;;;;;;6188818;28;20039;-79
2022/04/25 00:28:48;;;;;;;76.82;22.98;;;12.00;99.90;;;;;;6177679;28;20500;-81
2022/04/25 00:31:51;;;;;;;62.22;20.13;;;12.00;99.90;;;;;;6178774;28;20047;-81
2022/04/25 00:34:55;;;;;;;66.15;20.50;;;12.00;99.90;;;;;;6177775;28;20047;-80
2022/04/25 00:37:57;;;;;;;76.18;21.17;;;12.00;99.90;;;;;;6177666;28;20057;-78
2022/04/25 00:41:06;;;;;;;78.57;21.75;;;12.10;99.90;;;;;;6180604;28;20515;-78
2022/04/25 00:44:10;;;;;;;73.57;20.38;;;12.10;99.90;;;;;;6177697;28;20047;-81
2022/04/25 00:47:12;;;;;;;78.95;21.40;;;12.20;99.90;;;;;;6178067;28;20090;-81
2022/04/25 00:50:29;;;;;;;61.63;18.77;;;12.20;99.90;;;;;;6178768;28;20093;-81
2022/04/25 00:53:31;;;;;;;74.68;21.20;;;12.30;99.90;;;;;;6172221;28;20122;-81
2022/04/25 00:56:38;;;;;;;63.13;18.52;;;12.30;99.90;;;;;;6191913;28;20062;-81
2022/04/25 00:59:41;;;;;;;66.55;20.23;;;12.30;99.90;;;;;;6178767;28;20504;-80
2022/04/25 01:02:45;;;;;;;71.63;20.83;;;12.30;99.90;;;;;;6179850;28;20058;-80
2022/04/25 01:09:35;;;;;;;81.88;22.42;;;12.30;99.90;;;;;;6198290;28;20046;-79
2022/04/25 01:12:38;;;;;;;71.18;21.05;;;12.30;99.90;;;;;;6202816;28;20109;-81
2022/04/25 01:15:40;;;;;;;65.65;21.02;;;12.30;99.90;;;;;;6201394;28;20046;-80
2022/04/25 01:18:42;;;;;;;76.68;23.55;;;12.20;99.90;;;;;;6202259;28;20136;-79
2022/04/25 01:21:46;;;;;;;75.15;21.88;;;12.20;99.90;;;;;;6203482;28;20046;-81
2022/04/25 01:32:14;;;;;;;91.15;22.98;;;12.10;99.90;;;;;;6204821;28;20051;-81
2022/04/25 01:38:41;;;;;;;86.13;23.52;;;12.20;99.90;;;;;;6203718;28;20142;-80
2022/04/25 01:41:45;;;;;;;90.95;23.90;;;12.30;99.90;;;;;;6212884;28;20042;-80
2022/04/25 01:44:49;;;;;;;85.28;23.83;;;12.30;99.90;;;;;;6208794;28;20162;-79
2022/04/25 01:47:54;;;;;;;87.88;24.02;;;12.40;99.90;;;;;;6207379;28;20526;-80
2022/04/25 01:50:58;;;;;;;87.70;26.92;;;12.50;99.90;;;;;;6200475;28;20054;-80
2022/04/25 01:54:01;;;;;;;90.93;27.63;;;12.50;99.90;;;;;;6206288;28;20047;-80
2022/04/25 01:57:04;;;;;;;97.75;27.40;;;12.50;99.90;;;;;;6207961;28;20476;-80
2022/04/25 02:00:08;;;;;;;98.03;28.58;;;12.50;99.90;;;;;;6206430;28;20054;-79
2022/04/25 02:03:19;;;;;;;91.30;26.90;;;12.50;99.90;;;;;;6207293;28;20046;-80
2022/04/25 02:06:36;;;;;;;91.50;27.13;;;12.50;99.90;;;;;;6205680;28;20401;-80
2022/04/25 02:09:43;;;;;;;88.88;27.08;;;12.50;99.90;;;;;;6197328;28;20520;-80
2022/04/25 02:12:47;;;;;;;90.65;27.08;;;12.50;99.90;;;;;;6181986;28;20134;-80
2022/04/25 02:15:49;;;;;;;87.68;26.92;;;12.50;99.90;;;;;;6180021;28;20061;-80
2022/04/25 02:18:53;;;;;;;80.85;26.13;;;12.60;99.90;;;;;;6180435;28;20042;-77
2022/04/25 02:21:59;;;;;;;87.05;26.65;;;12.50;99.90;;;;;;6183581;28;20054;-79
2022/04/25 02:25:09;;;;;;;82.07;25.75;;;12.40;99.80;;;;;;6194724;28;20109;-80
2022/04/25 02:28:31;;;;;;;90.25;25.15;;;12.30;99.90;;;;;;6184894;28;20051;-80
2022/04/25 02:31:33;;;;;;;81.70;24.92;;;12.20;99.90;;;;;;6184069;28;20122;-79
2022/04/25 02:34:36;;;;;;;83.97;25.73;;;12.10;99.80;;;;;;6184274;28;20062;-80
2022/04/25 02:41:09;;;;;;;95.93;24.23;;;11.70;99.90;;;;;;6184607;28;20421;-80
2022/04/25 02:44:13;;;;;;;83.05;23.10;;;11.50;99.90;;;;;;6188987;28;20055;-80
2022/04/25 02:47:15;;;;;;;92.15;26.38;;;11.40;99.90;;;;;;6184160;28;20064;-80
2022/04/25 02:50:17;;;;;;;78.03;24.17;;;11.30;99.90;;;;;;6182033;28;20067;-79
2022/04/25 02:53:19;;;;;;;84.10;25.05;;;11.20;99.90;;;;;;6183549;28;20065;-79
2022/04/25 02:56:21;;;;;;;78.70;25.20;;;11.20;99.90;;;;;;6183885;28;20053;-79
2022/04/25 02:59:24;;;;;;;76.40;23.58;;;11.10;99.90;;;;;;6185917;28;20065;-79
2022/04/25 03:02:26;;;;;;;88.40;24.67;;;11.00;99.90;;;;;;6186172;28;20047;-80
2022/04/25 03:05:28;;;;;;;80.78;24.88;;;11.00;99.90;;;;;;6187203;28;20069;-81
2022/04/25 03:08:30;;;;;;;71.80;23.60;;;11.00;99.90;;;;;;6197128;28;20057;-81
2022/04/25 03:11:34;;;;;;;94.32;26.70;;;10.90;99.90;;;;;;6209773;28;20060;-81
2022/04/25 03:14:37;;;;;;;100.93;27.08;;;11.00;99.90;;;;;;6212212;28;20118;-81
2022/04/25 03:17:39;;;;;;;82.03;27.23;;;11.10;99.90;;;;;;6212396;28;20053;-80
2022/04/25 03:20:43;;;;;;;103.13;27.58;;;11.20;99.90;;;;;;6212556;28;20060;-80
2022/04/25 03:23:45;;;;;;;113.18;29.52;;;11.20;99.90;;;;;;6211191;28;20056;-80
2022/04/25 03:26:47;;;;;;;83.70;23.70;;;11.30;99.90;;;;;;6214180;28;20074;-80
2022/04/25 03:29:50;;;;;;;106.03;30.20;;;11.30;99.90;;;;;;6212681;28;20042;-80
2022/04/25 03:32:52;;;;;;;99.93;28.10;;;11.30;99.90;;;;;;6213455;28;20093;-80
2022/04/25 03:35:54;;;;;;;107.95;27.70;;;11.40;99.90;;;;;;6213130;28;20042;-80
2022/04/25 03:38:55;;;;;;;118.30;27.13;;;11.40;99.90;;;;;;6212709;28;20081;-79
2022/04/25 03:41:57;;;;;;;99.80;28.42;;;11.40;99.90;;;;;;6211410;28;20141;-80
2022/04/25 03:45:00;;;;;;;114.85;29.23;;;11.50;99.90;;;;;;6213602;28;20077;-81
2022/04/25 03:48:02;;;;;;;109.15;27.25;;;11.60;99.90;;;;;;6209424;28;20050;-80
2022/04/25 03:51:04;;;;;;;118.80;28.10;;;11.50;99.90;;;;;;6210731;28;20070;-83
2022/04/25 03:54:06;;;;;;;115.10;27.63;;;11.60;99.90;;;;;;6211322;28;20058;-81
2022/04/25 03:57:10;;;;;;;128.73;30.73;;;11.60;99.90;;;;;;6208983;28;20137;-82
2022/04/25 04:00:14;;;;;;;105.40;26.50;;;11.60;99.90;;;;;;6205278;28;20049;-81
2022/04/25 04:03:17;;;;;;;142.82;27.63;;;11.70;99.90;;;;;;6208794;28;20050;-80
2022/04/25 04:06:19;;;;;;;110.93;26.83;;;11.80;99.90;;;;;;6210857;28;20063;-80
2022/04/25 04:12:41;;;;;;;133.55;29.15;;;11.80;99.90;;;;;;6190480;28;20047;-80
2022/04/25 04:15:44;;;;;;;133.52;28.85;;;11.90;99.90;;;;;;6186186;28;20074;-80
2022/04/25 04:18:46;;;;;;;171.02;31.65;;;11.90;99.90;;;;;;6185773;28;20054;-80
2022/04/25 04:21:48;;;;;;;142.82;29.95;;;12.00;99.90;;;;;;6187228;28;20094;-80
2022/04/25 04:24:50;;;;;;;118.60;27.52;;;12.00;99.90;;;;;;6186695;28;20739;-80
2022/04/25 04:27:52;;;;;;;135.70;27.60;;;12.00;99.90;;;;;;6185521;28;20050;-80
2022/04/25 04:30:55;;;;;;;140.52;32.35;;;12.10;99.90;;;;;;6186256;28;20251;-81
2022/04/25 04:33:57;;;;;;;132.13;28.73;;;12.10;99.90;;;;;;6184699;28;20069;-80
2022/04/25 04:36:59;;;;;;;130.23;26.95;;;12.20;99.80;;;;;;6185443;28;20110;-81
2022/04/25 04:43:16;;;;;;;114.15;26.40;;;12.10;99.90;;;;;;6184354;28;20054;-80
2022/04/25 04:46:19;;;;;;;139.48;30.00;;;12.20;99.90;;;;;;6184853;28;20296;-80
2022/04/25 04:49:21;;;;;;;155.45;30.83;;;12.30;99.80;;;;;;6183715;28;20054;-81
2022/04/25 04:52:23;;;;;;;137.90;28.77;;;12.20;99.80;;;;;;6183739;28;20111;-81
2022/04/25 04:55:25;;;;;;;174.88;32.03;;;12.20;99.90;;;;;;6183351;28;20113;-80
2022/04/25 04:58:29;;;;;;;145.70;27.77;;;12.20;99.90;;;;;;6182727;28;20117;-80
2022/04/25 05:02:12;;;;;;;140.77;28.67;;;12.20;99.90;;;;;;6198297;28;20047;-81
2022/04/25 05:05:15;;;;;;;114.88;26.83;;;12.20;99.90;;;;;;6183195;28;20102;-80
2022/04/25 05:08:17;;;;;;;135.45;28.75;;;12.30;99.90;;;;;;6182709;28;20057;-80
2022/04/25 05:11:19;;;;;;;134.93;27.63;;;12.30;99.80;;;;;;6193321;28;20042;-80
2022/04/25 05:14:21;;;;;;;120.05;25.92;;;12.40;99.60;;;;;;6205611;28;20066;-80
2022/04/25 05:17:23;;;;;;;122.63;27.10;;;12.30;99.70;;;;;;6205701;28;20108;-80
2022/04/25 05:20:26;;;;;;;148.30;28.98;;;12.40;99.70;;;;;;6205238;28;20051;-80
2022/04/25 05:23:28;;;;;;;126.70;27.30;;;12.30;99.60;;;;;;6205470;28;20070;-80
2022/04/25 05:26:30;;;;;;;114.20;25.50;;;12.40;99.50;;;;;;6205767;28;20054;-80
2022/04/25 05:29:32;;;;;;;120.65;28.95;;;12.30;99.50;;;;;;6205282;28;20050;-80
2022/04/25 05:32:46;;;;;;;101.30;26.15;;;12.20;99.40;;;;;;6206957;28;20054;-81
2022/04/25 05:35:49;;;;;;;108.57;27.70;;;12.10;99.80;;;;;;6205557;28;20053;-80
2022/04/25 05:38:51;;;;;;;113.20;26.85;;;12.10;99.90;;;;;;6207677;28;20112;-81
2022/04/25 05:41:53;;;;;;;118.15;27.77;;;12.20;99.90;;;;;;6208312;28;20508;-79
2022/04/25 05:44:55;;;;;;;112.75;26.15;;;12.30;99.90;;;;;;6211833;28;20064;-80
2022/04/25 05:47:58;;;;;;;105.93;26.90;;;12.40;99.80;;;;;;6211330;28;20055;-80
2022/04/25 05:54:20;;;;;;;91.45;26.90;;;12.50;99.20;;;;;;6211353;28;20102;-79
2022/04/25 05:57:23;;;;;;;90.97;25.08;;;12.50;99.80;;;;;;6210026;28;20050;-79
2022/04/25 06:00:25;;;;;;;100.80;26.63;;;12.70;99.60;;;;;;6209144;28;20057;-80
2022/04/25 06:03:27;;;;;;;98.75;27.10;;;12.70;99.20;;;;;;6211905;28;20061;-79
2022/04/25 06:06:30;;;;;;;84.07;25.02;;;12.70;99.50;;;;;;6206946;28;20065;-79
2022/04/25 06:09:32;;;;;;;89.68;25.20;;;12.80;99.90;;;;;;6207133;28;20077;-80
2022/04/25 06:12:34;;;;;;;87.97;24.58;;;12.90;99.20;;;;;;6204157;28;20114;-80
2022/04/25 06:15:36;;;;;;;93.55;24.95;;;13.00;99.60;;;;;;6209043;28;20051;-80
2022/04/25 06:18:38;;;;;;;82.30;23.17;;;13.10;98.50;;;;;;6206501;28;20112;-80
2022/04/25 06:21:41;;;;;;;77.88;23.75;;;13.00;99.00;;;;;;6186492;28;20497;-80
2022/04/25 06:24:43;;;;;;;71.70;21.77;;;13.20;99.20;;;;;;6197394;28;20057;-80
2022/04/25 06:27:44;;;;;;;59.83;20.60;;;13.40;99.40;;;;;;6213276;28;20065;-80
2022/04/25 06:30:47;;;;;;;52.28;19.48;;;13.50;99.30;;;;;;6214717;28;20101;-79
2022/04/25 06:33:49;;;;;;;52.83;19.17;;;13.60;99.20;;;;;;6214735;28;20046;-79
2022/04/25 06:36:52;;;;;;;44.47;20.63;;;13.70;99.10;;;;;;6217253;28;20118;-79
2022/04/25 06:39:54;;;;;;;54.22;22.40;;;13.70;99.00;;;;;;6216295;28;20128;-80
2022/04/25 06:42:56;;;;;;;42.40;20.48;;;13.80;98.80;;;;;;6218518;28;20050;-79
2022/04/25 06:54:03;;;;;;;33.55;19.20;;;14.10;97.90;;;;;;6208374;28;20058;-80
2022/04/25 06:57:06;;;;;;;37.88;21.00;;;14.30;97.40;;;;;;6216676;28;20061;-79
2022/04/25 07:00:11;;;;;;;30.95;19.10;;;14.40;97.00;;;;;;6216437;28;20423;-81
2022/04/25 07:03:12;;;;;;;29.80;18.88;;;14.50;96.60;;;;;;6214116;28;20058;-79
2022/04/25 07:06:14;;;;;;;28.95;18.20;;;14.60;97.00;;;;;;6212807;28;20047;-79
2022/04/25 07:09:17;;;;;;;24.73;16.20;;;14.80;96.60;;;;;;6209466;28;20054;-79
2022/04/25 07:12:19;;;;;;;27.85;17.63;;;15.20;96.90;;;;;;6211924;28;20052;-79
2022/04/25 07:15:21;;;;;;;24.85;17.40;;;15.70;96.10;;;;;;6204590;28;20050;-79
2022/04/25 07:18:23;;;;;;;26.23;16.20;;;16.30;95.50;;;;;;6213215;28;20116;-79
2022/04/25 07:31:26;;;;;;;21.63;14.45;;;15.70;92.10;;;;;;6211561;28;20070;-80
2022/04/25 07:34:28;;;;;;;24.02;14.98;;;15.20;93.10;;;;;;6212014;28;20576;-79
2022/04/25 07:37:33;;;;;;;23.73;14.63;;;15.10;94.70;;;;;;6205868;28;20054;-80
2022/04/25 07:40:37;;;;;;;26.55;14.98;;;14.90;95.30;;;;;;6214746;28;20070;-79
2022/04/25 07:43:38;;;;;;;26.88;15.93;;;14.90;95.50;;;;;;6209250;28;20042;-80
2022/04/25 07:46:41;;;;;;;27.35;14.60;;;14.90;94.90;;;;;;6209183;28;20496;-80
2022/04/25 07:49:43;;;;;;;32.80;16.67;;;14.70;95.50;;;;;;6207133;28;20050;-81
2022/04/25 07:52:45;;;;;;;31.80;16.10;;;14.40;96.80;;;;;;6209302;28;20109;-78
2022/04/25 07:55:48;;;;;;;28.58;16.27;;;14.20;98.70;;;;;;6210656;28;20077;-80
2022/04/25 07:58:50;;;;;;;31.63;16.13;;;14.00;99.40;;;;;;6214952;28;20081;-80
2022/04/25 08:01:52;;;;;;;34.97;17.92;;;13.90;99.90;;;;;;6209514;28;20062;-80
2022/04/25 08:04:53;;;;;;;32.28;17.88;;;14.00;99.90;;;;;;6209032;28;20140;-79
2022/04/25 08:07:55;;;;;;;32.60;16.45;;;14.10;99.90;;;;;;6207213;28;20046;-80
2022/04/25 08:10:58;;;;;;;39.63;18.98;;;14.10;99.90;;;;;;6209086;28;20053;-80
2022/04/25 08:20:39;;;;;;;35.28;18.23;;;14.60;99.90;;;;;;6208489;28;20046;-80
2022/04/25 08:23:45;;;;;;;36.40;18.30;;;14.90;99.90;;;;;;6208501;28;20047;-80
2022/04/25 08:26:48;;;;;;;32.13;18.80;;;15.10;99.80;;;;;;6207641;28;20369;-80
2022/04/25 08:29:50;;;;;;;36.63;22.58;;;15.20;99.30;;;;;;6210248;28;20073;-80
2022/04/25 08:32:52;;;;;;;27.65;16.15;;;15.20;99.40;;;;;;6206331;28;20133;-80
2022/04/25 08:35:58;;;;;;;26.88;14.48;;;15.10;99.20;;;;;;6206212;28;20066;-80
2022/04/25 08:39:00;;;;;;;25.02;14.68;;;15.10;99.40;;;;;;6205450;28;20086;-81
2022/04/25 08:42:07;;;;;;;24.48;15.90;;;15.00;99.20;;;;;;6204644;28;20050;-80
2022/04/25 08:45:10;;;;;;;20.90;13.60;;;15.00;99.30;;;;;;6203672;28;20537;-80
2022/04/25 08:48:14;;;;;;;26.10;16.45;;;15.00;99.00;;;;;;6183412;28;20532;-80
2022/04/25 08:51:16;;;;;;;33.03;21.35;;;15.00;98.80;;;;;;6209342;28;20049;-80
2022/04/25 08:54:20;;;;;;;22.00;14.18;;;15.10;98.70;;;;;;6214102;28;20050;-80
2022/04/25 08:57:24;;;;;;;24.20;14.68;;;15.10;98.60;;;;;;6209789;28;20120;-77
2022/04/25 09:00:26;;;;;;;20.38;12.27;;;15.20;98.50;;;;;;6209921;28;20050;-80
2022/04/25 09:03:28;;;;;;;22.33;13.30;;;15.20;98.30;;;;;;6211157;28;20042;-80
2022/04/25 09:06:30;;;;;;;22.80;13.32;;;15.10;98.40;;;;;;6211850;28;20066;-80
2022/04/25 09:09:32;;;;;;;19.15;12.20;;;15.20;98.00;;;;;;6212326;28;20085;-80
2022/04/25 09:12:35;;;;;;;15.02;10.52;;;15.20;98.00;;;;;;6214095;28;20050;-80
2022/04/25 09:15:37;;;;;;;17.85;11.57;;;15.30;97.70;;;;;;6203013;28;20064;-80
2022/04/25 09:18:43;;;;;;;20.60;11.27;;;15.30;97.90;;;;;;6214215;28;20104;-79
2022/04/25 09:21:47;;;;;;;16.05;9.77;;;15.40;97.60;;;;;;6219004;28;20034;-78
2022/04/25 09:24:49;;;;;;;14.27;9.25;;;15.40;97.00;;;;;;6223262;28;20185;-78
2022/04/25 09:28:08;;;;;;;16.65;10.25;;;15.50;96.20;;;;;;6207072;28;20069;-78
2022/04/25 09:31:13;;;;;;;;;;;15.50;96.10;;;;;;6208304;28;20082;-80
2022/04/25 09:34:59;;;;;;;12.93;8.52;;;15.60;94.90;;;;;;6208077;28;19993;-79
2022/04/25 09:37:41;;;;;;;13.55;9.10;;;15.70;95.40;;;;;;6210438;28;20038;-79
2022/04/25 09:40:43;;;;;;;12.68;9.15;;;15.90;94.90;;;;;;6212601;28;20060;-80
2022/04/25 09:43:47;;;;;;;11.60;7.70;;;16.30;95.70;;;;;;6208647;28;20039;-80
2022/04/25 09:46:49;;;;;;;10.93;7.53;;;16.70;94.80;;;;;;6209404;28;20052;-80
2022/04/25 09:49:59;;;;;;;9.32;7.22;;;17.00;94.50;;;;;;6208291;28;20046;-80
2022/04/25 09:53:03;;;;;;;10.77;7.80;;;17.30;94.00;;;;;;6210841;28;20054;-80
2022/04/25 09:56:11;;;;;;;10.15;5.78;;;17.80;94.10;;;;;;6207083;28;20050;-81
2022/04/25 09:59:14;;;;;;;8.63;6.07;;;18.30;92.50;;;;;;6209379;28;20069;-80
2022/04/25 10:02:21;;;;;;;9.93;6.57;;;18.70;90.30;;;;;;6212528;28;20050;-80
2022/04/25 10:05:23;;;;;;;10.13;6.60;;;18.80;90.40;;;;;;6211957;28;20070;-81
2022/04/25 10:08:25;;;;;;;8.75;6.05;;;19.00;90.30;;;;;;6212779;28;20141;-81
2022/04/25 10:11:32;;;;;;;8.65;5.95;;;19.20;90.40;;;;;;6215039;28;20297;-81
2022/04/25 10:14:37;;;;;;;8.93;6.10;;;19.10;87.00;;;;;;6211038;28;20510;-81
2022/04/25 10:17:39;;;;;;;9.70;5.57;;;18.90;89.00;;;;;;6213570;28;20046;-80
2022/04/25 10:20:43;;;;;;;7.53;5.75;;;18.70;90.20;;;;;;6213903;28;20081;-80
2022/04/25 10:23:45;;;;;;;7.65;5.93;;;18.50;90.40;;;;;;6211922;28;20120;-81
2022/04/25 10:26:48;;;;;;;9.10;6.60;;;18.40;90.00;;;;;;6211147;28;20069;-80
2022/04/25 10:29:54;;;;;;;7.53;5.65;;;18.20;90.60;;;;;;6211877;28;20129;-80
2022/04/25 10:33:16;;;;;;;8.98;8.07;;;18.30;91.20;;;;;;6212922;28;20129;-81
2022/04/25 10:36:44;;;;;;;6.90;5.45;;;18.40;91.00;;;;;;6211507;28;20057;-80
2022/04/25 10:39:47;;;;;;;8.90;5.63;;;18.60;90.30;;;;;;6210571;28;20053;-80
2022/04/25 10:46:14;;;;;;;7.50;5.47;;;19.20;88.70;;;;;;6213892;28;20042;-78
2022/04/25 10:49:30;;;;;;;5.90;4.90;;;19.60;87.10;;;;;;6211596;28;20136;-80
2022/04/25 10:53:02;;;;;;;6.80;4.82;;;20.10;86.70;;;;;;6208471;28;20058;-80
2022/04/25 10:56:09;;;;;;;8.27;4.43;;;20.70;86.00;;;;;;6184577;28;20053;-80
2022/04/25 10:59:24;;;;;;;5.60;4.82;;;21.20;83.00;;;;;;6183795;28;20081;-81
2022/04/25 11:02:29;;;;;;;6.50;4.40;;;21.50;80.50;;;;;;6185542;28;20053;-82
2022/04/25 11:05:35;;;;;;;7.22;3.70;;;21.80;78.00;;;;;;6185862;28;20050;-82
2022/04/25 11:08:39;;;;;;;4.63;3.33;;;22.00;76.00;;;;;;6186077;28;20108;-80
2022/04/25 11:11:48;;;;;;;8.48;4.28;;;22.30;75.30;;;;;;6185854;28;20129;-80
2022/04/25 11:14:58;;;;;;;4.03;2.40;;;22.50;73.50;;;;;;6196991;28;20049;-80
2022/04/25 11:18:28;;;;;;;3.65;2.85;;;22.50;67.70;;;;;;6200679;28;20551;-80
2022/04/25 11:21:32;;;;;;;4.07;2.75;;;22.40;71.20;;;;;;6186128;28;20082;-80
2022/04/25 11:24:35;;;;;;;3.60;2.97;;;22.50;71.00;;;;;;6185921;28;20057;-80
2022/04/25 11:28:01;;;;;;;3.08;2.33;;;22.70;68.50;;;;;;6188060;28;20055;-81
2022/04/25 11:31:23;;;;;;;4.50;2.67;;;22.40;70.70;;;;;;6188069;28;20047;-80
2022/04/25 11:34:29;;;;;;;3.05;2.53;;;22.80;72.70;;;;;;6194339;28;20053;-79
2022/04/25 11:37:34;;;;;;;5.93;2.90;;;23.20;66.70;;;;;;6207376;28;20110;-79
2022/04/25 11:40:40;;;;;;;6.00;3.33;;;23.20;67.20;;;;;;6219004;28;20050;-80
2022/04/25 11:43:45;;;;;;;3.20;2.22;;;23.30;68.10;;;;;;6227493;28;20044;-80
2022/04/25 11:46:47;;;;;;;2.65;2.45;;;23.90;68.30;;;;;;6238446;28;20113;-82
2022/04/25 11:50:01;;;;;;;3.67;2.47;;;24.40;67.00;;;;;;6235496;28;20053;-80
2022/04/25 11:53:06;;;;;;;3.03;2.50;;;24.60;64.60;;;;;;6229878;28;20467;-79
2022/04/25 11:56:15;;;;;;;5.40;2.78;;;24.30;58.20;;;;;;6233233;28;20046;-82
2022/04/25 11:59:19;;;;;;;4.97;3.00;;;23.30;60.30;;;;;;6229356;28;20569;-80
2022/04/25 12:02:21;;;;;;;2.95;2.00;;;23.00;59.20;;;;;;6233811;28;20065;-80
2022/04/25 12:05:28;;;;;;;3.10;1.73;;;22.80;62.20;;;;;;6230843;28;20492;-81
2022/04/25 12:18:33;;;;;;;2.58;1.77;;;23.90;59.00;;;;;;6221438;28;20492;-81
2022/04/25 12:21:40;;;;;;;1.75;1.40;;;23.90;56.70;;;;;;6229519;28;21496;-80
2022/04/25 12:24:42;;;;;;;1.73;1.50;;;24.00;57.70;;;;;;6229037;28;20049;-78
2022/04/25 12:28:05;;;;;;;3.13;2.08;;;23.80;56.80;;;;;;6230067;28;20109;-80
2022/04/25 12:31:08;;;;;;;2.25;1.65;;;23.70;59.40;;;;;;6231067;28;20046;-80
2022/04/25 12:34:12;;;;;;;2.00;1.38;;;23.40;59.30;;;;;;6233151;28;20049;-80
2022/04/25 12:37:15;;;;;;;1.63;1.27;;;23.40;60.50;;;;;;6231653;28;20052;-81
2022/04/25 12:40:17;;;;;;;1.88;1.67;;;23.60;60.90;;;;;;6226513;28;20050;-83
2022/04/25 12:43:37;;;;;;;2.08;1.58;;;23.60;56.90;;;;;;6226063;28;20512;-80
2022/04/25 12:50:20;;;;;;;3.63;1.40;;;23.20;62.30;;;;;;6205568;28;20053;-81
2022/04/25 12:53:41;;;;;;;2.63;1.55;;;23.10;62.10;;;;;;6233747;28;20050;-79
2022/04/25 12:56:46;;;;;;;3.72;1.80;;;22.80;62.20;;;;;;6234142;28;20057;-80
2022/04/25 13:00:01;;;;;;;4.28;2.17;;;22.70;62.90;;;;;;6235058;28;20046;-81
2022/04/25 13:03:03;;;;;;;3.95;1.98;;;22.60;64.30;;;;;;6237329;28;20049;-79
2022/04/25 13:06:10;;;;;;;2.28;1.55;;;22.80;62.50;;;;;;6231088;28;20499;-81
2022/04/25 13:09:15;;;;;;;3.83;1.83;;;23.10;62.20;;;;;;6232906;28;20061;-79
2022/04/25 13:12:18;;;;;;;4.50;1.83;;;23.20;62.20;;;;;;6233287;28;20069;-80
2022/04/25 13:15:22;;;;;;;5.22;2.10;;;23.40;62.80;;;;;;6236047;28;20045;-80
2022/04/25 13:18:23;;;;;;;4.22;1.95;;;23.70;62.50;;;;;;6231242;28;20554;-80
2022/04/25 13:21:26;;;;;;;6.30;3.20;;;24.10;58.90;;;;;;6230253;28;20077;-79
2022/04/25 13:24:29;;;;;;;15.18;9.45;;;23.80;57.70;;;;;;6234593;28;20054;-80
2022/04/25 13:27:31;;;;;;;6.38;5.38;;;23.10;58.80;;;;;;6233932;28;20201;-82
2022/04/25 13:30:33;;;;;;;14.23;4.07;;;22.30;60.40;;;;;;6234434;28;20042;-78
2022/04/25 13:33:35;;;;;;;6.43;3.60;;;21.60;62.80;;;;;;6235696;28;20064;-79
2022/04/25 13:36:39;;;;;;;5.15;4.05;;;20.90;65.20;;;;;;6240093;28;20183;-79
2022/04/25 13:39:43;;;;;;;8.02;3.83;;;20.30;67.90;;;;;;6235959;28;20050;-79
2022/04/25 13:42:48;;;;;;;8.80;3.10;;;19.90;71.00;;;;;;6233240;28;20056;-81
2022/04/25 13:45:53;;;;;;;6.18;3.45;;;19.50;75.90;;;;;;6234336;28;20053;-81
2022/04/25 13:48:56;;;;;;;4.13;3.30;;;19.50;76.40;;;;;;6233612;28;20053;-78
2022/04/25 13:52:01;;;;;;;5.97;3.33;;;19.40;76.70;;;;;;6231589;28;20053;-81
2022/04/25 13:55:06;;;;;;;4.25;2.40;;;19.20;76.60;;;;;;6230999;28;20419;-80
2022/04/25 13:58:08;;;;;;;8.73;2.45;;;19.40;75.00;;;;;;6230523;28;20544;-80
2022/04/25 14:01:10;;;;;;;3.25;2.53;;;19.80;72.50;;;;;;6231131;28;20050;-80
2022/04/25 14:04:12;;;;;;;4.30;2.13;;;20.10;70.30;;;;;;6230399;28;20053;-80
2022/04/25 14:07:14;;;;;;;4.60;2.60;;;20.50;70.50;;;;;;6231822;28;20042;-80
2022/04/25 14:10:17;;;;;;;4.85;2.60;;;20.80;69.10;;;;;;6230964;28;20076;-80
2022/04/25 14:13:19;;;;;;;3.50;2.17;;;21.20;67.00;;;;;;6236144;28;20518;-81
2022/04/25 14:16:22;;;;;;;2.92;2.30;;;21.40;67.00;;;;;;6237799;28;20050;-80
2022/04/25 14:19:26;;;;;;;2.45;1.77;;;21.60;67.80;;;;;;6227022;28;20048;-81
2022/04/25 14:22:27;;;;;;;2.70;2.00;;;21.30;60.50;;;;;;6225561;28;20076;-80
2022/04/25 14:25:32;;;;;;;6.40;1.55;;;20.80;61.90;;;;;;6232448;28;20097;-81
2022/04/25 14:28:34;;;;;;;2.85;1.48;;;20.40;61.20;;;;;;6235390;28;20138;-81
2022/04/25 14:31:36;;;;;;;2.05;1.50;;;20.10;61.90;;;;;;6235198;28;20042;-79
2022/04/25 14:34:37;;;;;;;2.85;2.00;;;19.80;62.10;;;;;;6233995;28;20060;-79
2022/04/25 14:37:39;;;;;;;2.85;2.03;;;19.60;63.30;;;;;;6232443;28;20417;-80
2022/04/25 14:40:42;;;;;;;2.75;1.85;;;19.60;65.80;;;;;;6235352;28;20050;-79
2022/04/25 14:43:44;;;;;;;6.25;2.50;;;19.60;65.50;;;;;;6229205;28;20050;-78
2022/04/25 14:46:46;;;;;;;2.65;2.15;;;19.60;63.60;;;;;;6230500;28;20127;-80
2022/04/25 14:56:28;;;;;;;2.47;1.77;;;19.80;67.90;;;;;;6231003;28;20046;-81
2022/04/25 14:59:29;;;;;;;3.83;2.20;;;19.60;68.10;;;;;;6231416;28;20060;-80
2022/04/25 15:02:31;;;;;;;3.10;2.38;;;19.30;70.50;;;;;;6231161;28;20054;-79
2022/04/25 15:05:33;;;;;;;1.98;1.77;;;18.70;71.30;;;;;;6233964;28;20137;-81
2022/04/25 15:08:35;;;;;;;3.60;2.55;;;18.20;74.00;;;;;;6237852;28;20057;-79
2022/04/25 15:11:39;;;;;;;3.28;2.38;;;17.80;77.70;;;;;;6235495;28;20068;-81
2022/04/25 15:14:41;;;;;;;3.13;2.20;;;17.40;77.30;;;;;;6235452;28;20471;-80
2022/04/25 15:17:43;;;;;;;4.20;2.95;;;17.00;77.00;;;;;;6236074;28;20141;-80
2022/04/25 15:20:47;;;;;;;4.40;2.92;;;16.80;77.70;;;;;;6229200;28;20046;-79
2022/04/25 15:23:49;;;;;;;5.60;3.13;;;16.80;78.50;;;;;;6228315;28;20048;-81
2022/04/25 15:26:54;;;;;;;4.03;2.55;;;16.80;77.60;;;;;;6232325;28;20105;-80
2022/04/25 15:29:56;;;;;;;4.30;2.50;;;16.80;77.40;;;;;;6230624;28;20049;-79
2022/04/25 15:32:58;;;;;;;3.80;2.72;;;16.80;77.00;;;;;;6235914;28;20050;-80
2022/04/25 15:36:00;;;;;;;5.00;2.88;;;16.90;77.70;;;;;;6238615;28;20121;-80
2022/04/25 15:39:01;;;;;;;3.25;2.30;;;17.00;76.50;;;;;;6239287;28;20066;-81
2022/04/25 15:42:05;;;;;;;2.55;2.20;;;17.00;76.30;;;;;;6240170;28;20106;-81
2022/04/25 15:45:08;;;;;;;3.15;2.47;;;16.90;76.00;;;;;;6241203;28;20041;-80
2022/04/25 15:48:10;;;;;;;7.75;3.10;;;16.80;76.50;;;;;;6236092;28;20046;-81
2022/04/25 15:51:12;;;;;;;4.72;2.55;;;16.80;77.40;;;;;;6237273;28;20113;-80
2022/04/25 15:57:48;;;;;;;4.13;2.92;;;16.70;77.70;;;;;;6233652;28;20105;-79
2022/04/25 16:00:50;;;;;;;6.82;3.25;;;16.80;79.10;;;;;;6231780;28;20045;-78
2022/04/25 16:03:52;;;;;;;3.88;2.80;;;16.80;78.50;;;;;;6230967;28;20056;-80
2022/04/25 16:06:54;;;;;;;3.78;2.47;;;16.90;78.50;;;;;;6234688;28;20045;-79
2022/04/25 16:09:56;;;;;;;6.65;4.43;;;17.00;79.00;;;;;;6233215;28;20046;-81
2022/04/25 16:12:59;;;;;;;4.60;3.55;;;17.10;79.40;;;;;;6235510;28;20076;-80
2022/04/25 16:16:02;;;;;;;6.15;3.13;;;17.00;79.30;;;;;;6232311;28;20045;-80
2022/04/25 16:19:04;;;;;;;4.50;3.25;;;17.00;79.80;;;;;;6234478;28;20045;-80
2022/04/25 16:22:07;;;;;;;11.20;7.55;;;17.10;80.30;;;;;;6223251;28;20048;-80
2022/04/25 16:25:09;;;;;;;4.90;3.53;;;17.10;80.60;;;;;;6230482;28;20046;-80
2022/04/25 16:28:13;;;;;;;3.00;2.65;;;17.10;80.90;;;;;;6228641;28;20046;-80
2022/04/25 16:31:14;;;;;;;5.95;2.95;;;17.30;81.00;;;;;;6232389;28;20109;-80
2022/04/25 16:34:16;;;;;;;4.25;3.10;;;17.30;80.80;;;;;;6231019;28;20125;-79
2022/04/25 16:37:19;;;;;;;11.95;7.00;;;17.40;80.70;;;;;;6229464;28;20591;-80
2022/04/25 16:40:21;;;;;;;8.35;3.35;;;17.40;80.90;;;;;;6236452;28;20113;-80
2022/04/25 16:43:24;;;;;;;4.40;3.15;;;17.40;80.70;;;;;;6230516;28;20145;-81
2022/04/25 16:46:26;;;;;;;5.60;4.55;;;17.40;81.00;;;;;;6231014;28;20042;-82
2022/04/25 16:49:28;;;;;;;7.80;4.75;;;17.40;80.90;;;;;;6230553;28;20049;-80
2022/04/25 16:52:30;;;;;;;7.88;5.07;;;17.30;81.00;;;;;;6227502;28;20057;-82
2022/04/25 16:55:32;;;;;;;6.55;5.20;;;17.30;81.50;;;;;;6228410;28;20053;-81
2022/04/25 16:58:36;;;;;;;4.97;4.15;;;17.20;82.00;;;;;;6227139;28;20060;-80
2022/04/25 17:01:38;;;;;;;12.48;6.55;;;17.10;82.60;;;;;;6227309;28;20096;-81